Time;durP1;ratioP1;P1;durP2;ratioP2;P2;SDS_P1;SDS_P2;PMS_P1;PMS_P2;Temp;Humidity;BMP_temperature;BMP_pressure;BME280_temperature;BME280_humidity;BME280_pressure;Samples;Min_cycle;Max_cycle;Signal;HPM_P1;HPM_P2
2023/06/18 00:01:57;;;;;;;11.68;6.78;;;;;;;;;;5034969;28;94903;-71
2023/06/18 00:04:23;;;;;;;9.90;7.30;;;;;;;;;;5035777;27;93491;-71
2023/06/18 00:06:50;;;;;;;12.43;7.28;;;;;;;;;;5035826;27;92819;-72
2023/06/18 00:09:16;;;;;;;10.55;7.15;;;;;;;;;;5038799;27;93066;-71
2023/06/18 00:11:42;;;;;;;18.05;7.68;;;;;;;;;;5035809;28;92456;-71
2023/06/18 00:14:08;;;;;;;9.60;7.15;;;;;;;;;;5036018;28;93166;-71
2023/06/18 00:16:35;;;;;;;15.77;6.88;;;;;;;;;;5035648;28;93295;-71
2023/06/18 00:19:01;;;;;;;13.70;7.53;;;;;;;;;;5035769;28;91751;-71
2023/06/18 00:21:27;;;;;;;14.52;7.72;;;;;;;;;;5036274;28;92806;-71
2023/06/18 00:23:54;;;;;;;11.43;7.57;;;;;;;;;;5035493;27;93507;-71
2023/06/18 00:26:22;;;;;;;15.65;7.95;;;;;;;;;;5034043;27;94832;-71
2023/06/18 00:28:48;;;;;;;12.50;7.75;;;;;;;;;;5035294;28;95643;-71
2023/06/18 00:31:14;;;;;;;13.80;7.85;;;;;;;;;;5038828;27;93513;-71
2023/06/18 00:33:40;;;;;;;16.27;7.88;;;;;;;;;;5035877;28;94247;-71
2023/06/18 00:36:08;;;;;;;15.48;8.07;;;;;;;;;;5035185;28;92790;-71
2023/06/18 00:38:35;;;;;;;18.38;8.05;;;;;;;;;;5035745;28;92468;-71
2023/06/18 00:41:02;;;;;;;13.35;8.02;;;;;;;;;;5035272;27;93259;-71
2023/06/18 00:43:28;;;;;;;13.05;7.72;;;;;;;;;;5035823;27;92912;-71
2023/06/18 00:45:59;;;;;;;13.27;8.27;;;;;;;;;;5035093;27;92400;-71
2023/06/18 00:48:26;;;;;;;16.25;8.25;;;;;;;;;;5015220;28;93631;-71
2023/06/18 00:50:53;;;;;;;12.90;7.75;;;;;;;;;;5012944;28;95921;-71
2023/06/18 00:53:20;;;;;;;14.27;8.20;;;;;;;;;;5018344;28;92496;-71
2023/06/18 00:55:50;;;;;;;11.73;8.00;;;;;;;;;;5015102;28;94931;-72
2023/06/18 00:58:17;;;;;;;14.98;8.00;;;;;;;;;;5014843;28;92388;-71
2023/06/18 01:00:43;;;;;;;13.48;8.13;;;;;;;;;;5015005;28;94305;-71
2023/06/18 01:03:17;;;;;;;17.52;8.07;;;;;;;;;;5015205;28;94552;-71
2023/06/18 01:05:49;;;;;;;11.07;7.75;;;;;;;;;;5015199;28;92616;-71
2023/06/18 01:08:17;;;;;;;14.35;7.60;;;;;;;;;;5014940;28;93060;-71
2023/06/18 01:10:44;;;;;;;11.73;8.48;;;;;;;;;;5015316;28;93272;-71
2023/06/18 01:13:13;;;;;;;12.13;8.40;;;;;;;;;;5014457;28;92461;-71
2023/06/18 01:15:40;;;;;;;13.00;8.13;;;;;;;;;;5016538;28;94812;-71
2023/06/18 01:18:07;;;;;;;19.65;8.43;;;;;;;;;;5032727;28;92484;-71
2023/06/18 01:20:40;;;;;;;15.90;8.13;;;;;;;;;;5034493;28;93470;-71
2023/06/18 01:23:27;;;;;;;14.32;9.30;;;;;;;;;;5034398;27;93794;-71
2023/06/18 01:25:57;;;;;;;13.80;8.90;;;;;;;;;;5017108;28;92465;-71
2023/06/18 01:28:24;;;;;;;14.63;8.85;;;;;;;;;;5034626;27;93229;-71
2023/06/18 01:30:53;;;;;;;21.20;8.68;;;;;;;;;;5034681;28;92583;-71
2023/06/18 01:33:21;;;;;;;15.23;9.38;;;;;;;;;;5035354;28;91766;-71
2023/06/18 01:35:47;;;;;;;16.45;9.52;;;;;;;;;;5034805;28;93570;-71
2023/06/18 01:38:17;;;;;;;16.30;10.20;;;;;;;;;;5037789;28;94942;-71
2023/06/18 01:40:49;;;;;;;17.90;9.98;;;;;;;;;;5031813;28;94763;-71
2023/06/18 01:43:18;;;;;;;12.82;9.50;;;;;;;;;;5033820;28;93562;-71
2023/06/18 01:45:49;;;;;;;12.75;9.05;;;;;;;;;;5034086;27;92529;-71
2023/06/18 01:48:17;;;;;;;14.43;9.60;;;;;;;;;;5034344;28;93238;-72
2023/06/18 01:50:45;;;;;;;14.40;9.52;;;;;;;;;;5033904;27;93529;-71
2023/06/18 01:53:13;;;;;;;11.45;9.20;;;;;;;;;;5034207;27;92544;-71
2023/06/18 01:55:41;;;;;;;20.65;10.80;;;;;;;;;;5034291;28;93544;-71
2023/06/18 01:58:07;;;;;;;18.10;10.40;;;;;;;;;;5033783;28;92797;-71
2023/06/18 02:00:34;;;;;;;14.60;10.43;;;;;;;;;;5036447;28;92474;-71
2023/06/18 02:03:00;;;;;;;14.05;10.38;;;;;;;;;;5033112;27;93511;-71
2023/06/18 02:05:27;;;;;;;12.48;9.65;;;;;;;;;;5031716;28;94898;-71
2023/06/18 02:07:53;;;;;;;14.65;10.18;;;;;;;;;;5033727;28;95601;-71
2023/06/18 02:10:19;;;;;;;15.18;10.07;;;;;;;;;;5033407;28;93510;-71
2023/06/18 02:12:47;;;;;;;15.98;10.40;;;;;;;;;;5033272;28;92393;-71
2023/06/18 02:15:13;;;;;;;17.92;10.88;;;;;;;;;;5033321;28;92391;-71
2023/06/18 02:17:40;;;;;;;12.30;9.60;;;;;;;;;;5031945;28;94523;-71
2023/06/18 02:20:06;;;;;;;16.98;9.85;;;;;;;;;;5037321;28;92434;-71
2023/06/18 02:22:33;;;;;;;14.02;9.40;;;;;;;;;;5034510;28;92980;-71
2023/06/18 02:25:00;;;;;;;21.40;10.68;;;;;;;;;;5033985;28;92379;-71
2023/06/18 02:27:27;;;;;;;24.88;11.13;;;;;;;;;;5015390;28;94437;-71
2023/06/18 02:29:53;;;;;;;16.30;10.02;;;;;;;;;;5031624;28;97012;-71
2023/06/18 02:32:19;;;;;;;14.32;9.73;;;;;;;;;;5032932;28;92429;-71
2023/06/18 02:34:46;;;;;;;15.82;10.95;;;;;;;;;;5034356;28;92387;-71
2023/06/18 02:37:13;;;;;;;14.43;10.43;;;;;;;;;;5032856;28;93345;-71
2023/06/18 02:39:39;;;;;;;18.13;9.55;;;;;;;;;;5032775;28;92369;-71
2023/06/18 02:42:09;;;;;;;23.92;10.38;;;;;;;;;;5036831;27;93257;-71
2023/06/18 02:44:36;;;;;;;19.13;9.83;;;;;;;;;;5032854;28;92667;-71
2023/06/18 02:47:03;;;;;;;22.38;9.35;;;;;;;;;;5033862;28;93202;-71
2023/06/18 02:49:30;;;;;;;18.77;9.90;;;;;;;;;;5033284;28;92469;-71
2023/06/18 02:51:56;;;;;;;26.95;9.18;;;;;;;;;;5033824;28;92433;-71
2023/06/18 02:54:22;;;;;;;13.82;9.25;;;;;;;;;;5032093;28;94937;-71
2023/06/18 02:56:49;;;;;;;16.45;9.35;;;;;;;;;;5015675;28;93512;-71
2023/06/18 02:59:16;;;;;;;13.02;9.18;;;;;;;;;;5033338;28;92379;-71
2023/06/18 03:01:45;;;;;;;13.63;9.00;;;;;;;;;;5033215;28;93032;-71
2023/06/18 03:04:13;;;;;;;14.45;9.35;;;;;;;;;;5036090;28;93833;-71
2023/06/18 03:06:40;;;;;;;14.02;8.63;;;;;;;;;;5033503;28;93346;-72
2023/06/18 03:09:06;;;;;;;12.63;9.25;;;;;;;;;;5015444;28;93488;-71
2023/06/18 03:11:33;;;;;;;12.32;8.48;;;;;;;;;;5033581;27;92056;-71
2023/06/18 03:13:59;;;;;;;14.65;9.00;;;;;;;;;;5015807;28;93550;-71
2023/06/18 03:16:26;;;;;;;15.23;9.55;;;;;;;;;;5029065;28;93365;-71
2023/06/18 03:18:53;;;;;;;20.80;10.57;;;;;;;;;;5011316;28;95091;-72
2023/06/18 03:21:19;;;;;;;16.88;9.40;;;;;;;;;;5012391;28;95648;-71
2023/06/18 03:23:45;;;;;;;14.73;9.20;;;;;;;;;;5012825;28;93487;-71
2023/06/18 03:26:12;;;;;;;25.35;10.40;;;;;;;;;;5015642;28;92510;-71
2023/06/18 03:28:38;;;;;;;18.50;9.07;;;;;;;;;;5012055;28;94259;-71
2023/06/18 03:31:06;;;;;;;14.40;9.30;;;;;;;;;;5015400;28;92557;-71
2023/06/18 03:33:33;;;;;;;18.90;8.68;;;;;;;;;;5016122;28;93546;-71
2023/06/18 03:36:00;;;;;;;18.02;9.05;;;;;;;;;;5023478;28;92860;-71
2023/06/18 03:38:27;;;;;;;15.23;7.95;;;;;;;;;;5036752;28;92517;-71
2023/06/18 03:40:53;;;;;;;22.02;7.90;;;;;;;;;;5036031;28;93431;-71
2023/06/18 03:43:20;;;;;;;45.72;9.32;;;;;;;;;;5034636;28;96854;-71
2023/06/18 03:45:46;;;;;;;33.83;9.18;;;;;;;;;;5036403;28;92427;-71
2023/06/18 03:48:13;;;;;;;24.50;8.55;;;;;;;;;;5038819;28;93518;-71
2023/06/18 03:50:39;;;;;;;16.15;9.15;;;;;;;;;;5036478;28;92491;-71
2023/06/18 03:53:06;;;;;;;20.65;9.70;;;;;;;;;;5035878;27;93267;-71
2023/06/18 03:55:35;;;;;;;17.65;8.85;;;;;;;;;;5035655;28;93429;-71
2023/06/18 03:58:01;;;;;;;11.73;9.25;;;;;;;;;;5036085;27;92428;-71
2023/06/18 04:00:27;;;;;;;10.93;8.55;;;;;;;;;;5036135;28;93195;-71
2023/06/18 04:02:54;;;;;;;14.70;9.02;;;;;;;;;;5035464;28;93720;-71
2023/06/18 04:05:20;;;;;;;20.20;9.30;;;;;;;;;;5035917;27;92516;-70
2023/06/18 04:07:46;;;;;;;16.95;8.90;;;;;;;;;;5034450;28;94858;-71
2023/06/18 04:10:13;;;;;;;18.92;8.27;;;;;;;;;;5038739;28;93452;-71
2023/06/18 04:12:39;;;;;;;12.70;8.43;;;;;;;;;;5035632;28;93039;-71
2023/06/18 04:15:06;;;;;;;17.90;8.85;;;;;;;;;;5035521;28;94021;-71
2023/06/18 04:17:42;;;;;;;21.58;9.15;;;;;;;;;;5035497;27;92461;-71
2023/06/18 04:20:09;;;;;;;39.33;8.18;;;;;;;;;;5036314;28;94156;-71
2023/06/18 04:22:36;;;;;;;15.80;8.18;;;;;;;;;;5035361;27;93429;-71
2023/06/18 04:25:02;;;;;;;25.13;8.27;;;;;;;;;;5036280;28;91732;-71
2023/06/18 04:27:29;;;;;;;21.88;8.57;;;;;;;;;;5035056;27;92848;-71
2023/06/18 04:29:56;;;;;;;14.85;8.23;;;;;;;;;;5038537;28;93577;-71
2023/06/18 04:32:22;;;;;;;14.05;7.53;;;;;;;;;;5016126;28;94873;-71
2023/06/18 04:34:48;;;;;;;10.25;8.30;;;;;;;;;;5017357;28;93653;-71
2023/06/18 04:37:15;;;;;;;15.75;8.30;;;;;;;;;;5035096;27;92473;-71
2023/06/18 04:39:41;;;;;;;50.30;9.57;;;;;;;;;;5035761;28;94299;-71
2023/06/18 04:42:07;;;;;;;42.50;9.15;;;;;;;;;;5033395;27;93597;-71
2023/06/18 04:44:34;;;;;;;25.17;8.32;;;;;;;;;;5035102;27;92480;-71
2023/06/18 04:47:00;;;;;;;22.10;7.97;;;;;;;;;;5035132;27;92515;-71
2023/06/18 04:49:29;;;;;;;22.25;7.60;;;;;;;;;;5035351;28;92689;-71
2023/06/18 04:51:55;;;;;;;28.92;8.60;;;;;;;;;;5038415;27;92368;-71
2023/06/18 04:54:22;;;;;;;18.98;8.27;;;;;;;;;;5034811;28;93907;-71
2023/06/18 04:56:48;;;;;;;18.65;8.10;;;;;;;;;;5015202;28;94911;-70
2023/06/18 04:59:14;;;;;;;14.60;8.10;;;;;;;;;;5035112;28;95818;-71
2023/06/18 05:01:41;;;;;;;12.77;7.90;;;;;;;;;;5034656;28;94569;-70
2023/06/18 05:04:07;;;;;;;10.98;7.70;;;;;;;;;;5034902;28;92454;-70
2023/06/18 05:06:34;;;;;;;13.02;8.77;;;;;;;;;;5034728;28;93355;-71
2023/06/18 05:09:00;;;;;;;26.23;9.65;;;;;;;;;;5034873;27;93529;-71
2023/06/18 05:11:26;;;;;;;17.30;8.55;;;;;;;;;;5034551;28;92478;-71
2023/06/18 05:13:53;;;;;;;21.17;8.13;;;;;;;;;;5038186;27;93229;-71
2023/06/18 05:16:19;;;;;;;11.15;8.20;;;;;;;;;;5034696;28;92474;-71
2023/06/18 05:18:45;;;;;;;11.55;8.07;;;;;;;;;;5034881;28;93164;-71
2023/06/18 05:21:12;;;;;;;16.65;7.97;;;;;;;;;;5032573;27;96203;-71
2023/06/18 05:23:38;;;;;;;17.13;8.88;;;;;;;;;;5034553;28;92475;-71
2023/06/18 05:26:05;;;;;;;15.18;8.70;;;;;;;;;;5034659;28;93232;-70
2023/06/18 05:28:32;;;;;;;22.27;8.93;;;;;;;;;;5033945;28;93482;-71
2023/06/18 05:30:58;;;;;;;13.38;9.00;;;;;;;;;;5034564;28;92811;-71
2023/06/18 05:33:24;;;;;;;16.02;9.15;;;;;;;;;;5034043;28;93743;-71
2023/06/18 05:35:51;;;;;;;17.52;9.02;;;;;;;;;;5037182;28;92480;-71
2023/06/18 05:38:17;;;;;;;21.02;9.35;;;;;;;;;;5034538;28;93831;-71
2023/06/18 05:40:44;;;;;;;25.45;10.20;;;;;;;;;;5034260;28;93426;-71
2023/06/18 05:43:10;;;;;;;19.90;9.80;;;;;;;;;;5033432;28;92473;-71
2023/06/18 05:45:37;;;;;;;24.55;9.88;;;;;;;;;;5032533;27;94839;-71
2023/06/18 05:48:04;;;;;;;20.77;9.70;;;;;;;;;;5015615;28;92831;-71
2023/06/18 05:50:31;;;;;;;21.40;10.63;;;;;;;;;;5034298;28;92403;-71
2023/06/18 05:52:57;;;;;;;24.65;10.77;;;;;;;;;;5032826;28;93250;-71
2023/06/18 05:55:23;;;;;;;15.88;9.43;;;;;;;;;;5033416;28;93550;-71
2023/06/18 05:57:50;;;;;;;19.13;9.70;;;;;;;;;;5037162;28;92437;-71
2023/06/18 06:00:17;;;;;;;16.90;9.82;;;;;;;;;;5034139;28;94902;-71
2023/06/18 06:02:44;;;;;;;24.20;9.23;;;;;;;;;;5033940;28;91883;-71
2023/06/18 06:05:11;;;;;;;16.58;9.18;;;;;;;;;;5034660;27;93840;-71
2023/06/18 06:07:37;;;;;;;17.15;8.82;;;;;;;;;;5034233;28;93346;-71
2023/06/18 06:10:03;;;;;;;29.25;9.30;;;;;;;;;;5032749;28;94807;-71
2023/06/18 06:12:30;;;;;;;18.58;9.95;;;;;;;;;;5016157;28;96756;-71
2023/06/18 06:14:56;;;;;;;19.38;10.43;;;;;;;;;;5033713;27;93628;-71
2023/06/18 06:17:23;;;;;;;37.72;10.30;;;;;;;;;;5014750;28;92530;-71
2023/06/18 06:19:49;;;;;;;16.98;9.68;;;;;;;;;;5036114;28;92929;-71
2023/06/18 06:22:15;;;;;;;18.13;10.15;;;;;;;;;;5033913;28;92509;-71
2023/06/18 06:24:42;;;;;;;16.65;10.57;;;;;;;;;;5032867;28;93197;-71
2023/06/18 06:27:08;;;;;;;19.23;10.73;;;;;;;;;;5015270;28;93678;-71
2023/06/18 06:29:34;;;;;;;17.13;10.88;;;;;;;;;;5033065;27;92883;-71
2023/06/18 06:32:01;;;;;;;18.95;10.60;;;;;;;;;;5015168;28;93290;-71
2023/06/18 06:34:27;;;;;;;30.23;10.63;;;;;;;;;;5031026;28;96315;-71
2023/06/18 06:36:53;;;;;;;18.05;10.23;;;;;;;;;;5033003;28;92461;-71
2023/06/18 06:39:20;;;;;;;23.17;10.95;;;;;;;;;;5035707;28;93298;-71
2023/06/18 06:41:46;;;;;;;19.45;11.50;;;;;;;;;;5033181;28;92429;-71
2023/06/18 06:44:12;;;;;;;23.30;11.52;;;;;;;;;;5015163;28;94499;-71
2023/06/18 06:46:39;;;;;;;19.58;10.80;;;;;;;;;;5032889;28;93654;-71
2023/06/18 06:49:07;;;;;;;24.45;11.20;;;;;;;;;;5033296;28;92592;-71
2023/06/18 06:51:35;;;;;;;21.80;11.45;;;;;;;;;;5033615;27;94245;-71
2023/06/18 06:54:01;;;;;;;20.85;9.98;;;;;;;;;;5014871;28;93416;-71
2023/06/18 06:56:27;;;;;;;15.43;10.05;;;;;;;;;;5032456;28;92845;-71
2023/06/18 06:58:56;;;;;;;21.08;9.75;;;;;;;;;;5031028;28;94865;-71
2023/06/18 07:01:22;;;;;;;14.80;8.93;;;;;;;;;;5036348;28;93414;-71
2023/06/18 07:03:49;;;;;;;17.90;10.20;;;;;;;;;;5033576;28;93619;-71
2023/06/18 07:06:15;;;;;;;14.90;9.63;;;;;;;;;;5035641;28;93830;-71
2023/06/18 07:08:42;;;;;;;20.95;9.57;;;;;;;;;;5037545;28;92405;-70
2023/06/18 07:11:08;;;;;;;14.35;9.10;;;;;;;;;;5036946;28;93202;-70
2023/06/18 07:13:35;;;;;;;15.65;8.65;;;;;;;;;;5036588;27;93933;-70
2023/06/18 07:16:01;;;;;;;14.88;8.77;;;;;;;;;;5037246;28;91652;-70
2023/06/18 07:18:28;;;;;;;18.88;9.60;;;;;;;;;;5036702;28;92474;-70
2023/06/18 07:20:55;;;;;;;18.70;9.50;;;;;;;;;;5036645;28;93518;-70
2023/06/18 07:23:21;;;;;;;16.55;9.30;;;;;;;;;;5037885;28;94877;-70
2023/06/18 07:25:47;;;;;;;19.25;9.57;;;;;;;;;;5036415;27;93442;-70
2023/06/18 07:28:15;;;;;;;15.60;8.65;;;;;;;;;;5036034;27;92474;-70
2023/06/18 07:30:41;;;;;;;23.80;9.80;;;;;;;;;;5036537;28;93860;-70
2023/06/18 07:33:08;;;;;;;12.35;8.32;;;;;;;;;;5034991;28;93154;-72
2023/06/18 07:35:35;;;;;;;17.40;8.15;;;;;;;;;;5036491;27;92461;-69
2023/06/18 07:38:01;;;;;;;20.15;8.55;;;;;;;;;;5018542;28;93609;-72
2023/06/18 07:40:32;;;;;;;20.35;9.15;;;;;;;;;;5036820;28;91707;-71
2023/06/18 07:43:00;;;;;;;23.58;9.30;;;;;;;;;;5036022;28;92518;-71
2023/06/18 07:45:26;;;;;;;19.73;9.70;;;;;;;;;;5039125;28;93273;-72
2023/06/18 07:47:52;;;;;;;18.70;10.63;;;;;;;;;;5034285;28;95226;-73
2023/06/18 07:50:19;;;;;;;17.92;9.85;;;;;;;;;;5036073;28;96462;-74
2023/06/18 07:52:45;;;;;;;20.42;9.38;;;;;;;;;;5036131;28;92431;-74
2023/06/18 07:55:11;;;;;;;17.88;9.32;;;;;;;;;;5036245;27;92423;-74
2023/06/18 07:57:38;;;;;;;14.65;9.18;;;;;;;;;;5036011;28;92382;-74
2023/06/18 08:00:05;;;;;;;18.45;9.60;;;;;;;;;;5035903;28;93485;-73
2023/06/18 08:02:32;;;;;;;15.48;9.50;;;;;;;;;;5036019;28;92783;-74
2023/06/18 08:04:59;;;;;;;14.95;8.85;;;;;;;;;;5036684;28;93305;-73
2023/06/18 08:07:25;;;;;;;17.52;10.27;;;;;;;;;;5038797;28;94115;-74
2023/06/18 08:09:52;;;;;;;19.98;9.65;;;;;;;;;;5034599;27;93292;-74
2023/06/18 08:12:18;;;;;;;16.90;10.43;;;;;;;;;;5016457;28;96776;-73
2023/06/18 08:14:46;;;;;;;15.48;8.70;;;;;;;;;;5035290;28;92469;-73
2023/06/18 08:17:15;;;;;;;13.85;9.90;;;;;;;;;;5035811;27;93254;-73
2023/06/18 08:19:46;;;;;;;14.80;9.32;;;;;;;;;;5035297;28;93587;-73
2023/06/18 08:22:12;;;;;;;15.70;9.82;;;;;;;;;;5035746;27;92483;-73
2023/06/18 08:24:39;;;;;;;21.95;8.75;;;;;;;;;;5035521;28;93086;-73
2023/06/18 08:27:05;;;;;;;13.68;9.85;;;;;;;;;;5017197;28;93453;-73
2023/06/18 08:29:32;;;;;;;16.90;9.95;;;;;;;;;;5039115;28;91629;-73
2023/06/18 08:32:04;;;;;;;13.45;8.40;;;;;;;;;;5035390;27;93446;-73
2023/06/18 08:34:31;;;;;;;16.67;7.93;;;;;;;;;;5035261;28;92492;-73
2023/06/18 08:36:58;;;;;;;16.50;9.20;;;;;;;;;;5033633;27;95107;-73
2023/06/18 08:39:26;;;;;;;19.92;8.45;;;;;;;;;;5035245;27;93709;-73
2023/06/18 08:41:54;;;;;;;15.10;8.10;;;;;;;;;;5035103;27;92507;-73
2023/06/18 08:44:23;;;;;;;16.50;7.85;;;;;;;;;;5035071;28;93412;-73
2023/06/18 08:46:51;;;;;;;16.08;7.50;;;;;;;;;;5035225;28;93699;-73
2023/06/18 08:49:18;;;;;;;11.63;7.55;;;;;;;;;;5038285;27;92852;-73
2023/06/18 08:51:45;;;;;;;7.93;6.40;;;;;;;;;;5035231;28;93454;-73
2023/06/18 08:54:17;;;;;;;22.38;7.95;;;;;;;;;;5035998;28;91767;-73
2023/06/18 08:56:44;;;;;;;19.55;6.88;;;;;;;;;;5035143;28;92829;-73
2023/06/18 08:59:11;;;;;;;13.77;6.60;;;;;;;;;;5034935;27;93252;-73
2023/06/18 09:01:37;;;;;;;14.48;7.70;;;;;;;;;;5033495;27;94810;-74
2023/06/18 09:04:04;;;;;;;11.93;7.43;;;;;;;;;;5034664;27;95725;-73
2023/06/18 09:06:32;;;;;;;16.35;6.68;;;;;;;;;;5035045;28;93485;-73
2023/06/18 09:09:01;;;;;;;9.57;6.88;;;;;;;;;;5034617;28;92408;-73
2023/06/18 09:11:27;;;;;;;14.33;7.07;;;;;;;;;;5037981;27;93328;-73
2023/06/18 09:14:00;;;;;;;10.77;7.18;;;;;;;;;;5034774;28;92484;-73
2023/06/18 09:16:27;;;;;;;15.30;6.97;;;;;;;;;;5035014;28;94281;-73
2023/06/18 09:18:54;;;;;;;12.75;7.22;;;;;;;;;;5035140;28;92682;-73
2023/06/18 09:21:40;;;;;;;9.52;6.85;;;;;;;;;;5035222;27;92549;-73
2023/06/18 09:24:14;;;;;;;15.63;6.35;;;;;;;;;;5035054;27;94340;-74
2023/06/18 09:26:41;;;;;;;11.38;6.20;;;;;;;;;;5031987;27;95850;-73
2023/06/18 09:29:08;;;;;;;20.08;6.85;;;;;;;;;;5033540;28;92538;-74
2023/06/18 09:31:37;;;;;;;11.43;7.47;;;;;;;;;;5034802;28;94350;-73
2023/06/18 09:34:16;;;;;;;9.10;6.57;;;;;;;;;;5037343;27;93493;-73
2023/06/18 09:36:43;;;;;;;12.20;6.63;;;;;;;;;;5034605;28;93350;-73
2023/06/18 09:39:19;;;;;;;14.98;6.80;;;;;;;;;;5034426;28;93514;-73
2023/06/18 09:41:47;;;;;;;14.20;6.70;;;;;;;;;;5034383;28;92473;-73
2023/06/18 09:44:14;;;;;;;11.50;6.40;;;;;;;;;;5016746;28;93308;-73
2023/06/18 09:46:44;;;;;;;11.55;6.82;;;;;;;;;;5034183;28;93592;-74
2023/06/18 09:49:12;;;;;;;12.65;6.60;;;;;;;;;;5034518;27;92425;-73
2023/06/18 09:51:40;;;;;;;15.43;7.65;;;;;;;;;;5033080;28;94982;-73
2023/06/18 09:54:08;;;;;;;8.85;6.43;;;;;;;;;;5034461;28;94564;-73
2023/06/18 09:56:34;;;;;;;15.05;6.80;;;;;;;;;;5036674;28;92795;-74
2023/06/18 09:59:03;;;;;;;11.25;6.95;;;;;;;;;;5032900;28;93181;-73
2023/06/18 10:01:43;;;;;;;8.40;5.88;;;;;;;;;;5033882;27;92629;-73
2023/06/18 10:04:12;;;;;;;7.53;5.78;;;;;;;;;;5034179;28;92648;-74
2023/06/18 10:06:42;;;;;;;8.55;6.30;;;;;;;;;;5033752;28;92993;-74
2023/06/18 10:09:08;;;;;;;;;;;;;;;;;;5035238;28;92334;-73
2023/06/18 10:11:36;;;;;;;13.75;6.57;;;;;;;;;;5017160;28;122743;-73
2023/06/18 10:14:06;;;;;;;17.33;6.93;;;;;;;;;;5034094;28;94521;-74
2023/06/18 10:16:34;;;;;;;12.23;5.93;;;;;;;;;;5032456;28;94950;-73
2023/06/18 10:19:00;;;;;;;11.20;5.95;;;;;;;;;;5036323;28;95548;-73
2023/06/18 10:21:28;;;;;;;11.23;6.93;;;;;;;;;;5015804;28;92503;-73
2023/06/18 10:24:10;;;;;;;16.73;6.03;;;;;;;;;;5034141;28;94259;-73
2023/06/18 10:26:38;;;;;;;14.48;6.05;;;;;;;;;;5033002;27;93492;-73
2023/06/18 10:29:05;;;;;;;6.90;5.32;;;;;;;;;;5033894;28;92716;-73
2023/06/18 10:31:31;;;;;;;7.20;4.90;;;;;;;;;;5033291;28;93466;-73
2023/06/18 10:33:58;;;;;;;7.45;5.97;;;;;;;;;;5033856;27;92931;-73
2023/06/18 10:36:25;;;;;;;12.35;5.25;;;;;;;;;;5033618;27;92554;-73
2023/06/18 10:38:52;;;;;;;10.32;5.53;;;;;;;;;;5038121;27;96011;-73
2023/06/18 10:41:19;;;;;;;10.98;5.82;;;;;;;;;;5035250;27;94910;-73
2023/06/18 10:43:52;;;;;;;14.25;6.15;;;;;;;;;;5037211;28;96743;-74
2023/06/18 10:46:19;;;;;;;19.17;7.80;;;;;;;;;;5036339;28;93510;-73
2023/06/18 10:49:08;;;;;;;12.13;6.45;;;;;;;;;;5036920;28;92727;-74
2023/06/18 10:51:34;;;;;;;14.77;7.15;;;;;;;;;;5037293;28;94237;-74
2023/06/18 10:54:21;;;;;;;18.42;7.03;;;;;;;;;;5036631;28;93430;-74
2023/06/18 10:56:51;;;;;;;15.55;7.47;;;;;;;;;;5036884;28;92435;-74
2023/06/18 10:59:34;;;;;;;8.00;6.50;;;;;;;;;;5037382;28;93497;-75
2023/06/18 11:02:01;;;;;;;12.93;7.68;;;;;;;;;;5039495;27;93539;-75
2023/06/18 11:04:29;;;;;;;14.48;7.90;;;;;;;;;;5036925;28;94289;-75
2023/06/18 11:07:10;;;;;;;14.95;7.28;;;;;;;;;;5035128;27;96408;-74
2023/06/18 11:09:47;;;;;;;10.15;6.88;;;;;;;;;;5036871;28;92630;-74
2023/06/18 11:12:23;;;;;;;15.50;6.13;;;;;;;;;;5036621;28;92642;-74
2023/06/18 11:15:05;;;;;;;9.30;6.22;;;;;;;;;;5036827;27;93387;-74
2023/06/18 11:17:32;;;;;;;12.95;7.13;;;;;;;;;;5037054;28;92958;-74
2023/06/18 11:19:59;;;;;;;9.88;6.20;;;;;;;;;;5036677;28;93241;-75
2023/06/18 11:22:28;;;;;;;10.93;6.95;;;;;;;;;;5036546;27;92611;-75
2023/06/18 11:24:56;;;;;;;8.75;6.57;;;;;;;;;;5040534;27;91731;-74
2023/06/18 11:27:24;;;;;;;14.20;6.78;;;;;;;;;;5035769;28;93718;-74
2023/06/18 11:29:59;;;;;;;9.35;6.28;;;;;;;;;;5036442;28;92394;-74
2023/06/18 11:32:26;;;;;;;12.13;5.85;;;;;;;;;;5035009;28;95044;-75
2023/06/18 11:34:56;;;;;;;11.32;6.20;;;;;;;;;;5035121;27;93402;-74
2023/06/18 11:37:28;;;;;;;12.02;6.45;;;;;;;;;;5036215;27;92473;-74
2023/06/18 11:39:55;;;;;;;13.10;6.35;;;;;;;;;;5036562;28;93653;-74
2023/06/18 11:42:25;;;;;;;8.00;6.13;;;;;;;;;;5035884;28;93596;-74
2023/06/18 11:44:52;;;;;;;8.30;6.05;;;;;;;;;;5035995;28;92412;-75
2023/06/18 11:47:19;;;;;;;11.45;6.43;;;;;;;;;;5038960;27;93431;-74
2023/06/18 11:49:47;;;;;;;9.82;6.10;;;;;;;;;;5036671;27;91638;-74
2023/06/18 11:52:15;;;;;;;10.38;6.53;;;;;;;;;;5035471;28;92634;-74
2023/06/18 11:54:42;;;;;;;27.33;7.95;;;;;;;;;;5035833;28;93564;-74
2023/06/18 11:57:12;;;;;;;17.13;6.00;;;;;;;;;;5034495;28;94902;-72
2023/06/18 11:59:39;;;;;;;14.23;6.13;;;;;;;;;;5036142;28;95425;-75
2023/06/18 12:02:10;;;;;;;18.38;6.75;;;;;;;;;;5034638;28;93399;-75
2023/06/18 12:04:37;;;;;;;11.10;6.20;;;;;;;;;;5035896;28;92880;-74
2023/06/18 12:07:03;;;;;;;11.25;6.50;;;;;;;;;;5036105;28;93173;-74
2023/06/18 12:09:37;;;;;;;7.15;5.60;;;;;;;;;;5038651;28;93799;-73
2023/06/18 12:12:16;;;;;;;12.27;6.55;;;;;;;;;;5035807;28;93464;-73
2023/06/18 12:15:02;;;;;;;12.67;5.87;;;;;;;;;;5036251;28;92876;-74
2023/06/18 12:17:29;;;;;;;13.45;6.80;;;;;;;;;;5035730;28;92437;-73
2023/06/18 12:19:59;;;;;;;10.52;6.65;;;;;;;;;;5036140;27;94223;-74
2023/06/18 12:22:26;;;;;;;;;;;;;;;;;;5034419;28;95887;-73
2023/06/18 12:24:53;;;;;;;13.73;6.00;;;;;;;;;;5036573;28;118708;-74
2023/06/18 12:27:20;;;;;;;11.88;6.90;;;;;;;;;;5035555;28;94269;-74
2023/06/18 12:29:46;;;;;;;10.07;6.10;;;;;;;;;;5035805;27;94864;-73
2023/06/18 12:32:12;;;;;;;17.15;6.35;;;;;;;;;;5039071;28;92699;-73
2023/06/18 12:34:39;;;;;;;9.20;5.93;;;;;;;;;;5035255;27;93446;-73
2023/06/18 12:37:06;;;;;;;7.50;5.85;;;;;;;;;;5035390;28;92490;-74
2023/06/18 12:39:32;;;;;;;10.07;5.47;;;;;;;;;;5035921;28;93130;-74
2023/06/18 12:42:02;;;;;;;11.85;6.03;;;;;;;;;;5034934;28;93487;-74
2023/06/18 12:44:28;;;;;;;12.85;5.97;;;;;;;;;;5035302;28;92471;-74
2023/06/18 12:46:56;;;;;;;29.50;6.25;;;;;;;;;;5033735;28;94865;-74
2023/06/18 12:49:23;;;;;;;7.03;5.47;;;;;;;;;;5035221;28;93355;-74
2023/06/18 12:51:53;;;;;;;9.18;5.47;;;;;;;;;;5038320;27;92410;-74
2023/06/18 12:54:21;;;;;;;12.35;5.05;;;;;;;;;;5034968;28;93461;-74
2023/06/18 12:56:48;;;;;;;8.88;5.60;;;;;;;;;;5035579;27;92414;-74
2023/06/18 12:59:19;;;;;;;7.22;5.47;;;;;;;;;;5035196;27;93155;-74
2023/06/18 13:01:46;;;;;;;7.45;4.80;;;;;;;;;;5034417;27;93681;-74
2023/06/18 13:04:20;;;;;;;15.40;5.78;;;;;;;;;;5035152;28;91779;-74
2023/06/18 13:06:51;;;;;;;8.95;4.90;;;;;;;;;;5035137;28;92367;-73
2023/06/18 13:09:17;;;;;;;9.55;5.32;;;;;;;;;;5035025;28;93387;-74
2023/06/18 13:11:45;;;;;;;11.57;5.10;;;;;;;;;;5033144;27;94855;-73
2023/06/18 13:14:11;;;;;;;11.45;5.18;;;;;;;;;;5037766;27;95746;-74
2023/06/18 13:17:00;;;;;;;8.68;5.22;;;;;;;;;;5035233;28;92456;-75
2023/06/18 13:19:30;;;;;;;10.07;5.60;;;;;;;;;;5034843;28;93137;-75
2023/06/18 13:22:06;;;;;;;10.45;5.43;;;;;;;;;;5034705;28;93566;-73
2023/06/18 13:24:33;;;;;;;15.23;5.28;;;;;;;;;;5034128;28;92475;-73
2023/06/18 13:26:59;;;;;;;11.82;5.45;;;;;;;;;;5034692;28;93725;-73
2023/06/18 13:29:27;;;;;;;5.43;4.88;;;;;;;;;;5035085;28;92900;-73
2023/06/18 13:31:53;;;;;;;9.73;5.80;;;;;;;;;;5034683;28;92496;-73
2023/06/18 13:34:20;;;;;;;9.73;4.57;;;;;;;;;;5034954;28;94127;-73
2023/06/18 13:36:48;;;;;;;13.57;5.10;;;;;;;;;;5035577;28;96013;-74
2023/06/18 13:39:14;;;;;;;14.98;4.88;;;;;;;;;;5034489;28;95770;-74
2023/06/18 13:41:40;;;;;;;8.55;5.15;;;;;;;;;;5034485;28;93583;-74
2023/06/18 13:44:07;;;;;;;15.00;5.32;;;;;;;;;;5033877;28;92488;-74
2023/06/18 13:46:34;;;;;;;9.90;5.10;;;;;;;;;;5034947;28;93006;-74
2023/06/18 13:49:00;;;;;;;6.85;4.80;;;;;;;;;;5034196;27;93455;-74
2023/06/18 13:51:27;;;;;;;12.68;5.15;;;;;;;;;;5016323;28;92566;-75
2023/06/18 13:53:53;;;;;;;12.00;5.28;;;;;;;;;;5034658;28;93281;-74
2023/06/18 13:56:19;;;;;;;9.90;5.22;;;;;;;;;;5034279;28;93564;-75
2023/06/18 13:58:46;;;;;;;14.77;5.43;;;;;;;;;;5037413;28;92802;-74
2023/06/18 14:01:12;;;;;;;17.42;5.90;;;;;;;;;;5032773;28;96836;-73
2023/06/18 14:03:39;;;;;;;17.92;5.13;;;;;;;;;;5034030;28;92563;-74
2023/06/18 14:06:06;;;;;;;7.18;5.40;;;;;;;;;;5034017;28;93173;-73
2023/06/18 14:08:33;;;;;;;11.07;5.88;;;;;;;;;;5034133;28;93300;-73
2023/06/18 14:10:59;;;;;;;15.32;6.60;;;;;;;;;;5034844;28;92407;-73
2023/06/18 14:13:25;;;;;;;13.15;5.45;;;;;;;;;;5034238;28;94214;-73
2023/06/18 14:15:53;;;;;;;9.60;5.68;;;;;;;;;;5034451;28;94587;-73
2023/06/18 14:18:19;;;;;;;13.05;5.20;;;;;;;;;;5034464;28;91704;-73
2023/06/18 14:20:46;;;;;;;12.13;5.32;;;;;;;;;;5036979;27;92517;-75
2023/06/18 14:23:12;;;;;;;12.15;6.05;;;;;;;;;;5033840;28;92485;-73
2023/06/18 14:25:38;;;;;;;12.75;5.53;;;;;;;;;;5032151;28;94767;-75
2023/06/18 14:28:05;;;;;;;15.82;6.07;;;;;;;;;;5033618;28;94519;-73
2023/06/18 14:30:31;;;;;;;14.00;6.07;;;;;;;;;;5034607;28;92484;-73
2023/06/18 14:32:57;;;;;;;13.52;6.30;;;;;;;;;;5033853;28;92378;-74
2023/06/18 14:35:24;;;;;;;14.88;6.63;;;;;;;;;;5033840;28;94653;-74